createdAt,value
2022-11-29T00:01:42.140Z,43.83
2022-11-29T00:04:09.573Z,46.38
2022-11-29T00:06:36.618Z,44.97
2022-11-29T00:09:07.928Z,42.25
2022-11-29T00:11:56.350Z,51.67
2022-11-29T00:14:26.062Z,50.60
2022-11-29T00:16:56.348Z,53.83
2022-11-29T00:19:24.301Z,44.58
2022-11-29T00:21:51.467Z,46.95
2022-11-29T00:24:20.709Z,50.40
2022-11-29T00:26:48.224Z,48.03
2022-11-29T00:29:16.314Z,43.10
2022-11-29T00:31:45.351Z,47.72
2022-11-29T00:34:14.220Z,53.38
2022-11-29T00:36:51.148Z,43.13
2022-11-29T00:39:21.352Z,46.65
2022-11-29T00:41:50.476Z,41.47
2022-11-29T00:44:20.512Z,48.47
2022-11-29T00:46:49.360Z,38.60
2022-11-29T00:49:16.600Z,40.38
2022-11-29T00:51:43.528Z,31.92
2022-11-29T00:54:10.435Z,43.80
2022-11-29T00:56:38.376Z,41.58
2022-11-29T00:59:06.261Z,46.50
2022-11-29T01:01:33.309Z,38.65
2022-11-29T01:04:03.690Z,34.78
2022-11-29T01:06:30.640Z,37.20
2022-11-29T01:08:57.500Z,34.08
2022-11-29T01:11:27.379Z,42.97
2022-11-29T01:13:58.687Z,39.78
2022-11-29T01:16:27.451Z,41.38
2022-11-29T01:18:54.366Z,43.65
2022-11-29T01:21:24.108Z,36.65
2022-11-29T01:23:52.591Z,39.20
2022-11-29T01:26:26.089Z,34.42
2022-11-29T01:28:56.370Z,40.80
2022-11-29T01:31:32.533Z,41.65
2022-11-29T01:34:02.189Z,40.05
2022-11-29T01:36:33.022Z,32.90
2022-11-29T01:39:05.531Z,37.88
2022-11-29T01:44:26.472Z,36.03
2022-11-29T01:46:57.360Z,30.92
2022-11-29T01:50:19.670Z,36.95
2022-11-29T01:53:45.144Z,36.25
2022-11-29T01:56:16.354Z,34.72
2022-11-29T02:02:57.346Z,34.40
2022-11-29T02:05:27.163Z,27.08
2022-11-29T02:07:57.812Z,33.00
2022-11-29T02:10:51.361Z,30.27
2022-11-29T02:13:42.655Z,30.25
2022-11-29T02:16:32.448Z,27.80
2022-11-29T02:19:14.377Z,32.08
2022-11-29T02:22:37.833Z,30.37
2022-11-29T02:25:41.884Z,32.17
2022-11-29T02:28:48.269Z,39.35
2022-11-29T02:31:28.503Z,32.70
2022-11-29T02:34:08.344Z,29.48
2022-11-29T02:36:46.125Z,36.90
2022-11-29T02:39:42.523Z,30.92
2022-11-29T02:42:54.130Z,30.33
2022-11-29T02:45:28.464Z,30.05
2022-11-29T02:48:22.448Z,30.40
2022-11-29T02:51:21.197Z,28.25
2022-11-29T02:54:00.855Z,26.58
2022-11-29T02:57:09.519Z,34.22
2022-11-29T03:00:02.471Z,31.20
2022-11-29T03:02:51.348Z,31.98
2022-11-29T03:05:37.308Z,27.33
2022-11-29T03:08:41.990Z,34.83
2022-11-29T03:11:45.123Z,25.65
2022-11-29T03:14:28.486Z,27.88
2022-11-29T03:17:17.556Z,28.98
2022-11-29T03:20:10.599Z,29.60
2022-11-29T03:25:37.461Z,30.70
2022-11-29T03:28:18.783Z,27.95
2022-11-29T03:31:23.546Z,27.85
2022-11-29T03:34:11.365Z,29.05
2022-11-29T03:36:54.636Z,31.92
2022-11-29T03:39:33.236Z,26.55
2022-11-29T03:42:06.339Z,28.85
2022-11-29T03:44:45.723Z,31.33
2022-11-29T03:47:23.195Z,29.45
2022-11-29T03:49:56.054Z,25.10
2022-11-29T03:52:38.024Z,24.35
2022-11-29T03:55:08.994Z,27.67
2022-11-29T03:58:17.106Z,26.45
2022-11-29T04:00:48.205Z,25.40
2022-11-29T04:04:00.131Z,26.52
2022-11-29T04:06:57.474Z,23.60
2022-11-29T04:09:40.402Z,22.63
2022-11-29T04:12:42.922Z,22.60
2022-11-29T04:15:16.645Z,18.08
2022-11-29T04:18:03.197Z,21.52
2022-11-29T04:21:08.657Z,25.10
2022-11-29T04:23:50.516Z,19.33
2022-11-29T04:26:39.777Z,26.50
2022-11-29T04:29:31.957Z,25.52
2022-11-29T04:32:00.212Z,24.30
2022-11-29T04:34:56.725Z,22.73
2022-11-29T04:37:51.258Z,27.65
2022-11-29T04:40:44.697Z,27.88
2022-11-29T04:43:48.711Z,25.73
2022-11-29T04:46:38.409Z,21.98
2022-11-29T04:49:19.573Z,26.33
2022-11-29T04:52:11.246Z,31.52
2022-11-29T04:54:46.541Z,25.33
2022-11-29T04:57:45.959Z,24.77
2022-11-29T05:00:21.629Z,28.40
2022-11-29T05:03:11.353Z,21.67
2022-11-29T05:06:01.792Z,27.85
2022-11-29T05:08:41.003Z,23.20
2022-11-29T05:11:37.922Z,28.48
2022-11-29T05:15:00.227Z,24.83
2022-11-29T05:17:49.649Z,26.52
2022-11-29T05:20:35.678Z,22.33
2022-11-29T05:23:29.920Z,26.70
2022-11-29T05:26:07.468Z,22.25
2022-11-29T05:28:50.311Z,26.83
2022-11-29T05:34:34.484Z,35.17
2022-11-29T05:37:12.046Z,24.85
2022-11-29T05:39:49.121Z,30.40
2022-11-29T05:42:23.001Z,28.05
2022-11-29T05:44:59.554Z,30.52
2022-11-29T05:47:37.658Z,25.88
2022-11-29T05:50:26.605Z,27.77
2022-11-29T05:53:45.463Z,25.92
2022-11-29T05:57:09.631Z,28.50
2022-11-29T05:59:39.332Z,31.25
2022-11-29T06:02:41.659Z,28.25
2022-11-29T06:05:30.195Z,35.07
2022-11-29T06:08:13.370Z,35.45
2022-11-29T06:11:01.450Z,30.75
2022-11-29T06:13:58.101Z,34.40
2022-11-29T06:16:51.571Z,30.17
2022-11-29T06:19:43.505Z,33.80
2022-11-29T06:22:24.924Z,34.10
2022-11-29T06:25:01.647Z,37.95
2022-11-29T06:27:50.433Z,29.92
2022-11-29T06:30:34.455Z,29.58
2022-11-29T06:33:12.686Z,29.35
2022-11-29T06:36:07.794Z,35.45
2022-11-29T06:38:34.958Z,28.90
2022-11-29T06:41:02.615Z,35.30
2022-11-29T06:43:30.163Z,31.20
2022-11-29T06:46:05.889Z,30.02
2022-11-29T06:48:43.032Z,37.30
2022-11-29T06:51:40.974Z,26.75
2022-11-29T06:54:14.126Z,32.95
2022-11-29T06:57:42.572Z,34.53
2022-11-29T07:00:18.310Z,31.38
2022-11-29T07:03:04.850Z,31.42
2022-11-29T07:05:33.678Z,35.65
2022-11-29T07:08:06.455Z,38.72
2022-11-29T07:10:38.300Z,33.28
2022-11-29T07:13:06.539Z,32.67
2022-11-29T07:15:34.812Z,28.25
2022-11-29T07:18:19.155Z,29.00
2022-11-29T07:20:53.503Z,31.10
2022-11-29T07:23:38.655Z,41.17
2022-11-29T07:26:25.304Z,33.60
2022-11-29T07:29:03.794Z,38.00
2022-11-29T07:31:49.821Z,33.30
2022-11-29T07:34:53.636Z,36.15
2022-11-29T07:37:24.284Z,38.83
2022-11-29T07:39:59.530Z,44.95
2022-11-29T07:43:02.306Z,35.20
2022-11-29T07:45:32.080Z,36.08
2022-11-29T07:47:59.376Z,38.60
2022-11-29T07:50:28.381Z,32.70
2022-11-29T07:52:56.341Z,34.08
2022-11-29T07:55:26.059Z,45.15
2022-11-29T07:57:53.256Z,38.35
2022-11-29T08:00:24.344Z,33.03
2022-11-29T08:02:51.603Z,32.55
2022-11-29T08:05:19.721Z,39.33
2022-11-29T08:07:47.899Z,51.58
2022-11-29T08:10:17.478Z,48.10
2022-11-29T08:12:46.705Z,57.05
2022-11-29T08:15:14.287Z,38.63
2022-11-29T08:17:42.180Z,48.35
2022-11-29T08:20:11.261Z,50.28
2022-11-29T08:22:38.459Z,39.15
2022-11-29T08:25:06.583Z,46.03
2022-11-29T08:27:34.261Z,43.47
2022-11-29T08:30:01.121Z,43.63
2022-11-29T08:32:28.855Z,43.05
2022-11-29T08:34:55.722Z,40.45
2022-11-29T08:37:22.558Z,46.67
2022-11-29T08:39:49.432Z,39.70
2022-11-29T08:42:16.261Z,55.17
2022-11-29T08:44:43.319Z,29.92
2022-11-29T08:47:29.522Z,42.33
2022-11-29T08:50:02.194Z,32.03
2022-11-29T08:55:20.316Z,35.08
2022-11-29T08:57:51.328Z,34.88
2022-11-29T09:00:19.586Z,34.85
2022-11-29T09:02:46.468Z,29.85
2022-11-29T09:05:15.217Z,47.53
2022-11-29T09:07:42.349Z,25.77
2022-11-29T09:10:11.364Z,34.70
2022-11-29T09:12:40.608Z,31.35
2022-11-29T09:15:10.142Z,45.08
2022-11-29T09:17:40.194Z,44.60
2022-11-29T09:20:08.274Z,37.70
2022-11-29T09:22:35.066Z,36.20
2022-11-29T09:25:01.972Z,36.63
2022-11-29T09:27:28.873Z,32.05
2022-11-29T09:29:56.922Z,63.28
2022-11-29T09:32:23.919Z,109.63
2022-11-29T09:34:50.868Z,35.40
2022-11-29T09:37:19.808Z,59.80
2022-11-29T09:39:46.764Z,30.17
2022-11-29T09:42:51.224Z,48.10
2022-11-29T09:45:20.774Z,35.13
2022-11-29T09:48:28.354Z,27.75
2022-11-29T09:51:28.009Z,55.78
2022-11-29T09:54:31.399Z,29.35
2022-11-29T09:56:58.535Z,47.92
2022-11-29T09:59:31.654Z,41.00
2022-11-29T10:02:00.549Z,31.50
2022-11-29T10:04:40.779Z,39.97
2022-11-29T10:07:26.526Z,30.65
2022-11-29T10:10:09.303Z,30.63
2022-11-29T10:12:39.255Z,32.38
2022-11-29T10:15:16.918Z,32.47
2022-11-29T10:18:12.795Z,31.33
2022-11-29T10:20:48.610Z,28.90
2022-11-29T10:23:54.408Z,31.90
2022-11-29T10:26:25.906Z,31.88
2022-11-29T10:28:57.603Z,25.20
2022-11-29T10:31:28.535Z,29.27
2022-11-29T10:33:58.292Z,29.42
2022-11-29T10:36:34.024Z,26.58
2022-11-29T10:39:20.028Z,30.45
2022-11-29T10:41:54.695Z,31.48
2022-11-29T10:44:21.844Z,28.85
2022-11-29T10:46:48.768Z,28.70
2022-11-29T10:49:18.578Z,29.13
2022-11-29T10:51:49.402Z,30.25
2022-11-29T10:54:36.574Z,30.65
2022-11-29T10:57:13.513Z,31.77
2022-11-29T10:59:40.650Z,26.08
2022-11-29T11:02:21.273Z,25.55
2022-11-29T11:04:50.122Z,25.90
2022-11-29T11:07:31.655Z,30.02
2022-11-29T11:10:00.042Z,23.00
2022-11-29T11:12:32.460Z,21.58
2022-11-29T11:15:15.350Z,25.88
2022-11-29T11:20:23.957Z,31.55
2022-11-29T11:23:30.385Z,33.10
2022-11-29T11:26:11.503Z,39.63
2022-11-29T11:28:47.212Z,35.85
2022-11-29T11:31:14.676Z,33.55
2022-11-29T11:33:46.330Z,30.35
2022-11-29T11:36:25.200Z,33.58
2022-11-29T11:38:57.988Z,32.38
2022-11-29T11:41:46.944Z,29.08
2022-11-29T11:44:48.390Z,35.53
2022-11-29T11:47:22.050Z,35.17
2022-11-29T11:50:09.179Z,27.60
2022-11-29T11:52:52.477Z,30.08
2022-11-29T11:55:30.674Z,29.95
2022-11-29T11:58:12.307Z,27.77
2022-11-29T12:01:03.323Z,34.97
2022-11-29T12:03:38.345Z,24.27
2022-11-29T12:06:27.074Z,23.35
2022-11-29T12:09:11.815Z,27.25
2022-11-29T12:12:00.252Z,26.35
2022-11-29T12:14:50.903Z,30.70
2022-11-29T12:17:50.821Z,23.20
2022-11-29T12:20:34.504Z,26.23
2022-11-29T12:25:53.640Z,25.80
2022-11-29T12:28:25.350Z,27.88
2022-11-29T12:31:13.179Z,29.90
2022-11-29T12:33:50.451Z,30.55
2022-11-29T12:36:35.917Z,32.75
2022-11-29T12:39:28.163Z,31.52
2022-11-29T12:42:14.631Z,37.30
2022-11-29T12:45:24.240Z,32.25
2022-11-29T12:48:13.614Z,29.17
2022-11-29T12:51:12.445Z,37.60
2022-11-29T12:53:58.039Z,30.23
2022-11-29T12:56:49.932Z,30.60
2022-11-29T12:59:44.965Z,37.95
2022-11-29T13:03:03.636Z,29.83
2022-11-29T13:10:10.433Z,32.92
2022-11-29T13:12:52.417Z,27.70
2022-11-29T13:15:22.848Z,40.13
2022-11-29T13:17:50.682Z,36.35
2022-11-29T13:20:43.548Z,35.85
2022-11-29T13:24:08.824Z,32.30
2022-11-29T13:26:38.604Z,34.97
2022-11-29T13:29:07.999Z,34.60
2022-11-29T13:31:36.659Z,36.97
2022-11-29T13:34:15.175Z,39.08
2022-11-29T13:37:07.549Z,36.50
2022-11-29T13:39:58.363Z,34.78
2022-11-29T13:42:39.553Z,42.75
2022-11-29T13:45:23.780Z,42.35
2022-11-29T13:48:02.137Z,44.35
2022-11-29T13:50:45.602Z,36.97
2022-11-29T13:53:19.186Z,42.15
2022-11-29T13:56:02.686Z,37.45
2022-11-29T13:58:34.374Z,38.05
2022-11-29T14:01:13.185Z,33.40
2022-11-29T14:03:48.127Z,33.55
2022-11-29T14:06:18.748Z,39.13
2022-11-29T14:09:19.992Z,44.85
2022-11-29T14:12:25.650Z,36.92
2022-11-29T14:14:57.088Z,45.55
2022-11-29T14:17:47.469Z,35.50
2022-11-29T14:20:30.424Z,33.70
2022-11-29T14:23:07.704Z,34.45
2022-11-29T14:26:03.047Z,35.50
2022-11-29T14:28:32.960Z,35.45
2022-11-29T14:31:04.983Z,31.95
2022-11-29T14:33:54.359Z,35.10
2022-11-29T14:36:31.471Z,34.05
2022-11-29T14:39:24.046Z,33.97
2022-11-29T14:41:51.002Z,27.05
2022-11-29T14:44:26.060Z,37.97
2022-11-29T14:47:14.899Z,29.02
2022-11-29T14:49:44.252Z,31.27
2022-11-29T14:52:15.151Z,30.38
2022-11-29T14:55:03.378Z,36.88
2022-11-29T14:58:01.372Z,32.20
2022-11-29T15:00:48.855Z,40.08
2022-11-29T15:03:36.735Z,40.97
2022-11-29T15:06:17.830Z,30.45
2022-11-29T15:09:15.061Z,36.47
2022-11-29T15:12:08.007Z,36.30
2022-11-29T15:14:52.432Z,32.53
2022-11-29T15:17:25.323Z,34.75
2022-11-29T15:20:03.778Z,36.35
2022-11-29T15:22:49.281Z,36.78
2022-11-29T15:25:32.077Z,34.33
2022-11-29T15:30:48.376Z,32.53
2022-11-29T15:33:25.559Z,35.58
2022-11-29T15:36:04.096Z,33.85
2022-11-29T15:38:45.942Z,46.65
2022-11-29T15:41:22.965Z,47.30
2022-11-29T15:43:53.940Z,55.38
2022-11-29T15:46:25.819Z,50.55
2022-11-29T15:48:52.954Z,53.20
2022-11-29T15:51:22.865Z,45.08
2022-11-29T15:54:12.852Z,41.83
2022-11-29T15:56:44.788Z,37.75
2022-11-29T15:59:17.761Z,47.17
2022-11-29T16:01:49.844Z,44.15
2022-11-29T16:04:21.221Z,47.25
2022-11-29T16:06:49.801Z,42.50
2022-11-29T16:09:22.661Z,39.50
2022-11-29T16:11:49.969Z,36.60
2022-11-29T16:14:29.450Z,41.50
2022-11-29T16:17:00.541Z,33.70
2022-11-29T16:19:34.731Z,31.23
2022-11-29T16:22:13.040Z,26.05
2022-11-29T16:25:03.806Z,36.55
2022-11-29T16:27:33.981Z,30.50
2022-11-29T16:30:02.967Z,36.85
2022-11-29T16:32:37.031Z,36.95
2022-11-29T16:35:24.388Z,30.95
2022-11-29T16:37:51.576Z,33.95
2022-11-29T16:40:28.364Z,35.20
2022-11-29T16:43:20.101Z,31.35
2022-11-29T16:46:08.645Z,35.45
2022-11-29T16:48:42.342Z,30.55
2022-11-29T16:51:10.531Z,33.03
2022-11-29T16:53:42.471Z,35.08
2022-11-29T16:56:12.203Z,36.70
2022-11-29T16:59:20.996Z,31.05
2022-11-29T17:01:31.381Z,36.03
2022-11-29T17:04:00.615Z,32.28
2022-11-29T17:06:30.100Z,33.58
2022-11-29T17:09:00.225Z,39.20
2022-11-29T17:11:27.533Z,39.78
2022-11-29T17:13:54.579Z,38.80
2022-11-29T17:16:24.766Z,40.30
2022-11-29T17:18:55.133Z,43.92
2022-11-29T17:21:25.724Z,58.00
2022-11-29T17:23:54.322Z,60.83
2022-11-29T17:26:46.393Z,53.10
2022-11-29T17:29:17.395Z,57.37
2022-11-29T17:31:46.331Z,55.97
2022-11-29T17:34:16.828Z,49.38
2022-11-29T17:36:46.204Z,43.35
2022-11-29T17:39:15.701Z,43.53
2022-11-29T17:41:44.701Z,46.38
2022-11-29T17:44:11.616Z,57.45
2022-11-29T17:46:38.653Z,53.20
2022-11-29T17:49:10.619Z,53.13
2022-11-29T17:51:54.318Z,50.55
2022-11-29T17:54:25.540Z,43.28
2022-11-29T17:56:56.296Z,74.80
2022-11-29T17:59:23.223Z,50.35
2022-11-29T18:01:51.355Z,57.92
2022-11-29T18:04:21.610Z,50.78
2022-11-29T18:06:56.956Z,47.08
2022-11-29T18:09:26.149Z,63.92
2022-11-29T18:11:58.355Z,84.85
2022-11-29T18:14:28.443Z,73.47
2022-11-29T18:16:57.541Z,52.67
2022-11-29T18:19:27.973Z,119.38
2022-11-29T18:21:54.936Z,47.78
2022-11-29T18:24:22.155Z,91.35
2022-11-29T18:26:50.217Z,65.97
2022-11-29T18:29:20.193Z,78.18
2022-11-29T18:31:48.407Z,59.08
2022-11-29T18:34:15.469Z,71.30
2022-11-29T18:36:46.021Z,69.65
2022-11-29T18:39:18.079Z,96.43
2022-11-29T18:41:47.857Z,57.28
2022-11-29T18:44:17.998Z,103.22
2022-11-29T18:46:45.792Z,94.65
2022-11-29T18:49:15.392Z,64.47
2022-11-29T18:51:47.519Z,67.47
2022-11-29T18:54:16.521Z,79.65
2022-11-29T18:56:46.170Z,72.22
2022-11-29T18:59:16.784Z,78.30
2022-11-29T19:01:46.161Z,72.57
2022-11-29T19:04:15.776Z,57.60
2022-11-29T19:06:43.354Z,58.55
2022-11-29T19:09:20.794Z,50.60
2022-11-29T19:11:49.638Z,50.67
2022-11-29T19:14:18.098Z,51.80
2022-11-29T19:16:46.522Z,66.03
2022-11-29T19:19:13.975Z,64.88
2022-11-29T19:21:42.369Z,70.82
2022-11-29T19:24:16.715Z,74.88
2022-11-29T19:26:47.283Z,85.25
2022-11-29T19:29:16.253Z,80.90
2022-11-29T19:31:44.170Z,54.97
2022-11-29T19:34:15.132Z,84.50
2022-11-29T19:36:45.219Z,83.40
2022-11-29T19:39:17.622Z,87.60
2022-11-29T19:41:47.533Z,87.10
2022-11-29T19:44:16.551Z,87.70
2022-11-29T19:46:48.751Z,94.55
2022-11-29T19:49:16.012Z,95.70
2022-11-29T19:51:42.875Z,117.10
2022-11-29T19:54:12.165Z,146.02
2022-11-29T19:56:40.426Z,80.15
2022-11-29T19:59:08.850Z,100.22
2022-11-29T20:01:43.821Z,111.10
2022-11-29T20:04:12.874Z,149.15
2022-11-29T20:06:40.805Z,139.05
2022-11-29T20:09:09.371Z,142.48
2022-11-29T20:11:38.740Z,80.35
2022-11-29T20:14:07.402Z,136.75
2022-11-29T20:16:36.899Z,114.07
2022-11-29T20:19:13.206Z,168.02
2022-11-29T20:21:44.904Z,78.60
2022-11-29T20:24:14.440Z,146.73
2022-11-29T20:26:46.621Z,194.15
2022-11-29T20:29:15.852Z,71.32
2022-11-29T20:31:49.570Z,65.00
2022-11-29T20:34:18.042Z,57.47
2022-11-29T20:37:13.066Z,84.45
2022-11-29T20:39:59.940Z,53.83
2022-11-29T20:42:57.170Z,73.97
2022-11-29T20:45:25.771Z,86.15
2022-11-29T20:47:55.767Z,98.70
2022-11-29T20:50:28.872Z,53.08
2022-11-29T20:53:05.817Z,147.65
2022-11-29T20:55:42.499Z,86.22
2022-11-29T20:58:14.559Z,100.55
2022-11-29T21:00:41.743Z,87.65
2022-11-29T21:03:15.977Z,55.97
2022-11-29T21:05:44.830Z,67.97
2022-11-29T21:08:12.129Z,53.53
2022-11-29T21:10:39.487Z,53.22
2022-11-29T21:13:06.546Z,80.32
2022-11-29T21:15:36.663Z,56.78
2022-11-29T21:18:05.058Z,47.53
2022-11-29T21:20:33.459Z,53.17
2022-11-29T21:23:28.418Z,54.20
2022-11-29T21:26:03.080Z,50.60
2022-11-29T21:28:37.480Z,47.47
2022-11-29T21:31:04.878Z,52.92
2022-11-29T21:33:33.077Z,56.80
2022-11-29T21:36:01.593Z,46.17
2022-11-29T21:38:29.143Z,46.75
2022-11-29T21:40:56.029Z,51.17
2022-11-29T21:43:50.260Z,46.90
2022-11-29T21:46:09.998Z,48.55
2022-11-29T21:48:37.891Z,52.40
2022-11-29T21:51:07.572Z,46.75
2022-11-29T21:53:35.678Z,45.38
2022-11-29T21:56:05.874Z,47.38
2022-11-29T21:58:34.442Z,46.00
2022-11-29T22:01:17.944Z,49.85
2022-11-29T22:03:50.083Z,44.28
2022-11-29T22:06:18.792Z,43.53
2022-11-29T22:08:49.089Z,45.50
2022-11-29T22:11:31.004Z,42.42
2022-11-29T22:14:13.868Z,41.80
2022-11-29T22:16:58.282Z,38.28
2022-11-29T22:19:30.752Z,43.25
2022-11-29T22:22:00.068Z,43.15
2022-11-29T22:24:29.810Z,53.28
2022-11-29T22:26:57.201Z,47.65
2022-11-29T22:29:25.008Z,45.90
2022-11-29T22:31:54.346Z,50.60
2022-11-29T22:34:22.436Z,46.13
2022-11-29T22:36:49.336Z,46.35
2022-11-29T22:39:16.176Z,44.25
2022-11-29T22:41:44.746Z,43.50
2022-11-29T22:44:13.836Z,45.42
2022-11-29T22:46:41.336Z,57.97
2022-11-29T22:49:08.255Z,57.20
2022-11-29T22:51:37.134Z,45.20
2022-11-29T22:54:09.164Z,50.30
2022-11-29T22:56:38.727Z,55.95
2022-11-29T22:59:15.554Z,46.10
2022-11-29T23:01:43.247Z,41.63
2022-11-29T23:04:11.820Z,43.50
2022-11-29T23:06:43.811Z,44.72
2022-11-29T23:09:16.040Z,58.60
2022-11-29T23:11:44.982Z,44.33
2022-11-29T23:14:12.738Z,43.88
2022-11-29T23:16:39.749Z,48.17
2022-11-29T23:19:06.859Z,45.35
2022-11-29T23:21:40.480Z,50.45
2022-11-29T23:24:07.671Z,51.78
2022-11-29T23:26:40.060Z,54.13
2022-11-29T23:29:18.731Z,49.13
2022-11-29T23:31:46.759Z,43.13
2022-11-29T23:34:15.381Z,48.78
2022-11-29T23:36:42.234Z,48.45
2022-11-29T23:39:09.299Z,38.85
2022-11-29T23:41:37.044Z,43.22
2022-11-29T23:44:08.745Z,43.05
2022-11-29T23:46:36.067Z,50.63
2022-11-29T23:49:03.991Z,48.03
2022-11-29T23:51:32.361Z,51.72
2022-11-29T23:54:00.237Z,51.53
2022-11-29T23:56:29.264Z,51.20
2022-11-29T23:58:58.099Z,55.58
